Mars — WDD7627 — position and weather

sailwx.info

Track history (hours):
 
Tides and Currents Weather Stations Pressure Air Temp Water Temp Dewpoint Dewpoint Depression Visibility Wind Speed Wind Dir Waves Ship Positions

Mars

Owner: G & H Towing Company, Galveston, TX. More information available from US FCC via Universal Licensing System and Coast Guard Vessel Documentation Center.

Last reported at 2018-Feb-22 07:03 UTC. Time now 2018-Feb-23 16:40 UTC.
Position N 29°43' W 095°01'.

Length 28 m; draft 4.5 m.

Type: Tug. MMSI: 366921820.

Date/timePositionNaut miles runAvg speedWind from/ knotsBaromVisibWave heightAir tempDewpointWater temp
2018-Feb-22 07:03N 29°43' W 095°01'1 7.9
2018-Feb-22 06:57N 29°42' W 095°01'5 8.3
2018-Feb-22 06:23N 29°38' W 094°58'2 5.7
2018-Feb-22 06:00N 29°37' W 094°60'0 0.4
2018-Feb-22 05:30N 29°37' W 094°60'1 2.7
2018-Feb-22 05:00N 29°37' W 095°01'0 0.8
2018-Feb-22 04:30N 29°37' W 095°01'0 0.0
2018-Feb-22 04:00N 29°37' W 095°01'0 0.6
2018-Feb-22 03:26N 29°37' W 095°01'0 0.0
2018-Feb-22 02:59N 29°37' W 095°01'0 0.0
2018-Feb-22 02:26N 29°37' W 095°01'0 0.0
2018-Feb-22 02:00N 29°37' W 095°01'3 6.2
2018-Feb-22 01:30N 29°38' W 094°58'4 6.5
2018-Feb-22 00:56N 29°41' W 094°60'0 0.0
2018-Feb-22 00:30N 29°41' W 094°60'0 0.0
2018-Feb-21 22:22N 29°41' W 094°60'0 0.0
2018-Feb-21 11:28N 29°41' W 094°60'0 0.0
2018-Feb-21 10:59N 29°41' W 094°60'0 0.0
2018-Feb-21 10:30N 29°41' W 094°60'0 0.6
2018-Feb-21 09:46N 29°41' W 094°59'0 1.7
2018-Feb-21 09:30N 29°41' W 094°60'0 0.0
2018-Feb-21 09:01N 29°41' W 094°60'0 0.0
2018-Feb-21 08:31N 29°41' W 094°60'0 0.0
2018-Feb-21 08:00N 29°41' W 094°60'0 0.0
2018-Feb-21 05:40N 29°41' W 094°60'0 0.0
2018-Feb-21 05:22N 29°41' W 094°60'0 0.0
2018-Feb-21 04:58N 29°41' W 094°60'0 0.0
2018-Feb-21 04:12N 29°41' W 094°60'0 0.0
2018-Feb-21 03:40N 29°41' W 094°60'0 0.1
2018-Feb-21 03:30N 29°41' W 094°60'0 0.0
2018-Feb-21 01:31N 29°41' W 094°60'0 0.1
2018-Feb-21 01:28N 29°41' W 094°60'0 0.0
2018-Feb-21 00:47N 29°41' W 094°60'0 0.0
2018-Feb-21 00:15N 29°41' W 094°60'0 0.0
2018-Feb-21 00:00N 29°41' W 094°60'0 0.0
2018-Feb-20 23:28N 29°41' W 094°60'0 0.1
2018-Feb-20 22:59N 29°41' W 094°60'0 0.0
2018-Feb-20 22:30N 29°41' W 094°60'0 0.0
2018-Feb-20 22:00N 29°41' W 094°60'0 0.0
2018-Feb-20 21:21N 29°41' W 094°60'0 0.0
2018-Feb-20 20:42N 29°41' W 094°60'0 0.0
2018-Feb-20 20:28N 29°41' W 094°60'0 0.0
2018-Feb-20 19:50N 29°41' W 094°60'0 0.1
2018-Feb-20 19:21N 29°41' W 094°60'0 0.0
2018-Feb-20 18:58N 29°41' W 094°60'0 0.0
2018-Feb-20 18:30N 29°41' W 094°60'0 0.0
2018-Feb-20 17:56N 29°41' W 094°60'0 0.0
2018-Feb-20 17:26N 29°41' W 094°60'0 0.0
2018-Feb-20 17:00N 29°41' W 094°60'0 0.0
2018-Feb-20 16:28N 29°41' W 094°60'0 0.0
2018-Feb-20 16:00N 29°41' W 094°60'0 0.0
2018-Feb-20 15:29N 29°41' W 094°60'0 0.0
2018-Feb-20 14:57N 29°41' W 094°60'0 0.0
2018-Feb-20 14:30N 29°41' W 094°60'0 0.0
2018-Feb-20 13:47N 29°41' W 094°60'0 0.1
2018-Feb-20 13:30N 29°41' W 094°60'0 0.0
2018-Feb-20 09:42N 29°41' W 094°60'0 0.0
2018-Feb-20 08:18N 29°41' W 094°60'0 0.0
2018-Feb-20 08:00N 29°41' W 094°60'0 0.2
2018-Feb-20 07:30N 29°41' W 094°60'4 6.5
2018-Feb-20 06:54N 29°44' W 095°03'3 7.3
2018-Feb-20 06:30N 29°46' W 095°05'5 1.3
2018-Feb-20 02:37N 29°42' W 095°01'1 9.7
2018-Feb-20 02:29N 29°42' W 094°60'510.6
2018-Feb-20 02:00N 29°37' W 094°58'3 5.6
2018-Feb-20 01:30N 29°37' W 095°01'1 1.1
2018-Feb-20 00:57N 29°37' W 095°01'1 2.0
2018-Feb-20 00:30N 29°37' W 095°00'3 5.1
2018-Feb-20 00:00N 29°38' W 094°58'5 9.1
2018-Feb-19 23:29N 29°42' W 095°01'6 0.4
2018-Feb-19 08:18N 29°45' W 095°07'0 0.0
2018-Feb-19 06:03N 29°45' W 095°07'0 0.1
2018-Feb-19 06:00N 29°45' W 095°07'5 0.2
2018-Feb-17 23:18N 29°43' W 095°01'2 8.6
2018-Feb-17 23:00N 29°41' W 094°59'4 8.8
2018-Feb-17 22:30N 29°37' W 094°58'2 4.3
2018-Feb-17 22:00N 29°37' W 095°01'0 0.0
2018-Feb-17 21:30N 29°37' W 095°01'0 0.0
2018-Feb-17 21:00N 29°37' W 095°01'1 1.4
2018-Feb-17 20:29N 29°37' W 095°01'1 2.2
2018-Feb-17 20:00N 29°37' W 095°00'0 0.3
2018-Feb-17 19:30N 29°37' W 095°00'3 6.6
2018-Feb-17 19:00N 29°40' W 094°58'510.4
2018-Feb-17 18:30N 29°44' W 095°02'4 0.2
2018-Feb-16 18:42N 29°45' W 095°07'0 0.0
2018-Feb-16 18:21N 29°45' W 095°07'0 0.0
2018-Feb-16 17:57N 29°45' W 095°07'0 0.0
2018-Feb-16 17:30N 29°45' W 095°07'0 0.0
2018-Feb-16 16:57N 29°45' W 095°07'0 0.0
2018-Feb-16 16:20N 29°45' W 095°07'0 0.0
2018-Feb-16 15:56N 29°45' W 095°07'0 0.0
2018-Feb-16 15:26N 29°45' W 095°07'0 0.4
2018-Feb-16 15:00N 29°44' W 095°07'3 6.8
2018-Feb-16 14:31N 29°45' W 095°11'11 0.6
2018-Feb-15 19:33N 29°37' W 095°02'9 0.8
2018-Feb-15 08:29N 29°44' W 095°07'0 0.0
2018-Feb-15 07:32N 29°44' W 095°07'0 0.0
2018-Feb-15 07:29N 29°44' W 095°07'0 0.0
2018-Feb-15 06:53N 29°44' W 095°07'0 0.0
2018-Feb-15 05:20N 29°44' W 095°07'0 0.0
2018-Feb-15 04:59N 29°44' W 095°07'5 0.9
2018-Feb-14 23:18N 29°42' W 095°01'2 7.8
2018-Feb-14 22:59N 29°41' W 094°59'4 8.7
2018-Feb-14 22:30N 29°37' W 094°58'3 3.9
2018-Feb-14 21:41N 29°37' W 095°01'0 0.2
2018-Feb-14 21:30N 29°37' W 095°01'0 0.5
2018-Feb-14 21:00N 29°37' W 095°02'0 0.0
2018-Feb-14 20:27N 29°37' W 095°02'0 0.0
2018-Feb-14 20:00N 29°37' W 095°02'0 0.0
2018-Feb-14 19:30N 29°37' W 095°02'0 0.0
2018-Feb-14 19:00N 29°37' W 095°02'0 0.0
2018-Feb-14 18:27N 29°37' W 095°02'0 0.0
2018-Feb-14 18:00N 29°37' W 095°02'0 0.0
2018-Feb-14 17:30N 29°37' W 095°02'0 0.0
2018-Feb-14 16:57N 29°37' W 095°02'0 0.0
2018-Feb-14 16:30N 29°37' W 095°02'0 0.0
2018-Feb-14 15:59N 29°37' W 095°02'0 0.0
2018-Feb-14 15:30N 29°37' W 095°02'0 0.0
2018-Feb-14 15:00N 29°37' W 095°02'0 0.0
2018-Feb-14 14:11N 29°37' W 095°02'0 0.0
2018-Feb-14 13:57N 29°37' W 095°02'0 0.0
2018-Feb-14 11:39N 29°37' W 095°02'0 0.0
2018-Feb-14 11:30N 29°37' W 095°02'0 0.0
2018-Feb-14 11:00N 29°37' W 095°02'0 0.0
2018-Feb-14 10:30N 29°37' W 095°02'0 0.0
2018-Feb-14 10:00N 29°37' W 095°02'0 0.0
2018-Feb-14 09:30N 29°37' W 095°02'0 0.0
2018-Feb-14 09:00N 29°37' W 095°02'0 0.0
2018-Feb-14 08:30N 29°37' W 095°02'0 0.0
2018-Feb-14 08:00N 29°37' W 095°02'0 0.0
2018-Feb-14 07:30N 29°37' W 095°02'0 0.0
2018-Feb-14 07:00N 29°37' W 095°02'0 0.0
2018-Feb-14 06:30N 29°37' W 095°02'0 0.0
2018-Feb-14 06:00N 29°37' W 095°02'0 0.0
2018-Feb-14 05:30N 29°37' W 095°02'0 0.0
2018-Feb-14 05:00N 29°37' W 095°02'0 0.0
2018-Feb-14 04:30N 29°37' W 095°02'0 0.0
2018-Feb-14 04:00N 29°37' W 095°02'0 0.0
2018-Feb-14 03:30N 29°37' W 095°02'0 0.0
2018-Feb-14 03:00N 29°37' W 095°02'0 0.0
2018-Feb-14 02:30N 29°37' W 095°02'0 0.0
2018-Feb-14 02:00N 29°37' W 095°02'0 0.0
2018-Feb-14 01:30N 29°37' W 095°02'0 0.0
2018-Feb-14 01:00N 29°37' W 095°02'0 0.0
2018-Feb-14 00:30N 29°37' W 095°02'0 0.0
2018-Feb-14 00:00N 29°37' W 095°02'0 0.0
2018-Feb-13 23:30N 29°37' W 095°02'0 0.0
2018-Feb-13 23:00N 29°37' W 095°02'0 0.0
2018-Feb-13 22:30N 29°37' W 095°02'0 0.0
2018-Feb-13 22:00N 29°37' W 095°02'0 0.0
2018-Feb-13 21:30N 29°37' W 095°02'0 0.1
2018-Feb-13 21:00N 29°37' W 095°02'1 2.8
2018-Feb-13 20:30N 29°37' W 094°60'0 0.1
2018-Feb-13 20:00N 29°37' W 094°60'0 0.0
2018-Feb-13 19:30N 29°37' W 094°60'1 1.3
2018-Feb-13 19:00N 29°37' W 094°59'3 6.7
2018-Feb-13 18:30N 29°40' W 094°59'  
Track history (hours):
 
Tides and Currents Weather Stations Pressure Air Temp Water Temp Dewpoint Dewpoint Depression Visibility Wind Speed Wind Dir Waves Ship Positions

Mars

Owner: G & H Towing Company, Galveston, TX. More information available from US FCC via Universal Licensing System and Coast Guard Vessel Documentation Center.

Last reported at 2018-Feb-22 07:03 UTC. Time now 2018-Feb-23 16:40 UTC.
Position N 29°43' W 095°01'.

Length 28 m; draft 4.5 m.

Type: Tug. MMSI: 366921820.

Date/timePositionNaut miles runAvg speedWind from/ knotsBaromVisibWave heightAir tempDewpointWater temp
2018-Feb-22 07:03N 29°43' W 095°01'1 7.9
2018-Feb-22 06:57N 29°42' W 095°01'5 8.3
2018-Feb-22 06:23N 29°38' W 094°58'2 5.7
2018-Feb-22 06:00N 29°37' W 094°60'0 0.4
2018-Feb-22 05:30N 29°37' W 094°60'1 2.7
2018-Feb-22 05:00N 29°37' W 095°01'0 0.8
2018-Feb-22 04:30N 29°37' W 095°01'0 0.0
2018-Feb-22 04:00N 29°37' W 095°01'0 0.6
2018-Feb-22 03:26N 29°37' W 095°01'0 0.0
2018-Feb-22 02:59N 29°37' W 095°01'0 0.0
2018-Feb-22 02:26N 29°37' W 095°01'0 0.0
2018-Feb-22 02:00N 29°37' W 095°01'3 6.2
2018-Feb-22 01:30N 29°38' W 094°58'4 6.5
2018-Feb-22 00:56N 29°41' W 094°60'0 0.0
2018-Feb-22 00:30N 29°41' W 094°60'0 0.0
2018-Feb-21 22:22N 29°41' W 094°60'0 0.0
2018-Feb-21 11:28N 29°41' W 094°60'0 0.0
2018-Feb-21 10:59N 29°41' W 094°60'0 0.0
2018-Feb-21 10:30N 29°41' W 094°60'0 0.6
2018-Feb-21 09:46N 29°41' W 094°59'0 1.7
2018-Feb-21 09:30N 29°41' W 094°60'0 0.0
2018-Feb-21 09:01N 29°41' W 094°60'0 0.0
2018-Feb-21 08:31N 29°41' W 094°60'0 0.0
2018-Feb-21 08:00N 29°41' W 094°60'0 0.0
2018-Feb-21 05:40N 29°41' W 094°60'0 0.0
2018-Feb-21 05:22N 29°41' W 094°60'0 0.0
2018-Feb-21 04:58N 29°41' W 094°60'0 0.0
2018-Feb-21 04:12N 29°41' W 094°60'0 0.0
2018-Feb-21 03:40N 29°41' W 094°60'0 0.1
2018-Feb-21 03:30N 29°41' W 094°60'0 0.0
2018-Feb-21 01:31N 29°41' W 094°60'0 0.1
2018-Feb-21 01:28N 29°41' W 094°60'0 0.0
2018-Feb-21 00:47N 29°41' W 094°60'0 0.0
2018-Feb-21 00:15N 29°41' W 094°60'0 0.0
2018-Feb-21 00:00N 29°41' W 094°60'0 0.0
2018-Feb-20 23:28N 29°41' W 094°60'0 0.1
2018-Feb-20 22:59N 29°41' W 094°60'0 0.0
2018-Feb-20 22:30N 29°41' W 094°60'0 0.0
2018-Feb-20 22:00N 29°41' W 094°60'0 0.0
2018-Feb-20 21:21N 29°41' W 094°60'0 0.0
2018-Feb-20 20:42N 29°41' W 094°60'0 0.0
2018-Feb-20 20:28N 29°41' W 094°60'0 0.0
2018-Feb-20 19:50N 29°41' W 094°60'0 0.1
2018-Feb-20 19:21N 29°41' W 094°60'0 0.0
2018-Feb-20 18:58N 29°41' W 094°60'0 0.0
2018-Feb-20 18:30N 29°41' W 094°60'0 0.0
2018-Feb-20 17:56N 29°41' W 094°60'0 0.0
2018-Feb-20 17:26N 29°41' W 094°60'0 0.0
2018-Feb-20 17:00N 29°41' W 094°60'0 0.0
2018-Feb-20 16:28N 29°41' W 094°60'0 0.0
2018-Feb-20 16:00N 29°41' W 094°60'0 0.0
2018-Feb-20 15:29N 29°41' W 094°60'0 0.0
2018-Feb-20 14:57N 29°41' W 094°60'0 0.0
2018-Feb-20 14:30N 29°41' W 094°60'0 0.0
2018-Feb-20 13:47N 29°41' W 094°60'0 0.1
2018-Feb-20 13:30N 29°41' W 094°60'0 0.0
2018-Feb-20 09:42N 29°41' W 094°60'0 0.0
2018-Feb-20 08:18N 29°41' W 094°60'0 0.0
2018-Feb-20 08:00N 29°41' W 094°60'0 0.2
2018-Feb-20 07:30N 29°41' W 094°60'4 6.5
2018-Feb-20 06:54N 29°44' W 095°03'3 7.3
2018-Feb-20 06:30N 29°46' W 095°05'5 1.3
2018-Feb-20 02:37N 29°42' W 095°01'1 9.7
2018-Feb-20 02:29N 29°42' W 094°60'510.6
2018-Feb-20 02:00N 29°37' W 094°58'3 5.6
2018-Feb-20 01:30N 29°37' W 095°01'1 1.1
2018-Feb-20 00:57N 29°37' W 095°01'1 2.0
2018-Feb-20 00:30N 29°37' W 095°00'3 5.1
2018-Feb-20 00:00N 29°38' W 094°58'5 9.1
2018-Feb-19 23:29N 29°42' W 095°01'6 0.4
2018-Feb-19 08:18N 29°45' W 095°07'0 0.0
2018-Feb-19 06:03N 29°45' W 095°07'0 0.1
2018-Feb-19 06:00N 29°45' W 095°07'5 0.2
2018-Feb-17 23:18N 29°43' W 095°01'2 8.6
2018-Feb-17 23:00N 29°41' W 094°59'4 8.8
2018-Feb-17 22:30N 29°37' W 094°58'2 4.3
2018-Feb-17 22:00N 29°37' W 095°01'0 0.0
2018-Feb-17 21:30N 29°37' W 095°01'0 0.0
2018-Feb-17 21:00N 29°37' W 095°01'1 1.4
2018-Feb-17 20:29N 29°37' W 095°01'1 2.2
2018-Feb-17 20:00N 29°37' W 095°00'0 0.3
2018-Feb-17 19:30N 29°37' W 095°00'3 6.6
2018-Feb-17 19:00N 29°40' W 094°58'510.4
2018-Feb-17 18:30N 29°44' W 095°02'4 0.2
2018-Feb-16 18:42N 29°45' W 095°07'0 0.0
2018-Feb-16 18:21N 29°45' W 095°07'0 0.0
2018-Feb-16 17:57N 29°45' W 095°07'0 0.0
2018-Feb-16 17:30N 29°45' W 095°07'0 0.0
2018-Feb-16 16:57N 29°45' W 095°07'0 0.0
2018-Feb-16 16:20N 29°45' W 095°07'0 0.0
2018-Feb-16 15:56N 29°45' W 095°07'0 0.0
2018-Feb-16 15:26N 29°45' W 095°07'0 0.4
2018-Feb-16 15:00N 29°44' W 095°07'3 6.8
2018-Feb-16 14:31N 29°45' W 095°11'11 0.6
2018-Feb-15 19:33N 29°37' W 095°02'9 0.8
2018-Feb-15 08:29N 29°44' W 095°07'0 0.0
2018-Feb-15 07:32N 29°44' W 095°07'0 0.0
2018-Feb-15 07:29N 29°44' W 095°07'0 0.0
2018-Feb-15 06:53N 29°44' W 095°07'0 0.0
2018-Feb-15 05:20N 29°44' W 095°07'0 0.0
2018-Feb-15 04:59N 29°44' W 095°07'5 0.9
2018-Feb-14 23:18N 29°42' W 095°01'2 7.8
2018-Feb-14 22:59N 29°41' W 094°59'4 8.7
2018-Feb-14 22:30N 29°37' W 094°58'3 3.9
2018-Feb-14 21:41N 29°37' W 095°01'0 0.2
2018-Feb-14 21:30N 29°37' W 095°01'0 0.5
2018-Feb-14 21:00N 29°37' W 095°02'0 0.0
2018-Feb-14 20:27N 29°37' W 095°02'0 0.0
2018-Feb-14 20:00N 29°37' W 095°02'0 0.0
2018-Feb-14 19:30N 29°37' W 095°02'0 0.0
2018-Feb-14 19:00N 29°37' W 095°02'0 0.0
2018-Feb-14 18:27N 29°37' W 095°02'0 0.0
2018-Feb-14 18:00N 29°37' W 095°02'0 0.0
2018-Feb-14 17:30N 29°37' W 095°02'0 0.0
2018-Feb-14 16:57N 29°37' W 095°02'0 0.0
2018-Feb-14 16:30N 29°37' W 095°02'0 0.0
2018-Feb-14 15:59N 29°37' W 095°02'0 0.0
2018-Feb-14 15:30N 29°37' W 095°02'0 0.0
2018-Feb-14 15:00N 29°37' W 095°02'0 0.0
2018-Feb-14 14:11N 29°37' W 095°02'0 0.0
2018-Feb-14 13:57N 29°37' W 095°02'0 0.0
2018-Feb-14 11:39N 29°37' W 095°02'0 0.0
2018-Feb-14 11:30N 29°37' W 095°02'0 0.0
2018-Feb-14 11:00N 29°37' W 095°02'0 0.0
2018-Feb-14 10:30N 29°37' W 095°02'0 0.0
2018-Feb-14 10:00N 29°37' W 095°02'0 0.0
2018-Feb-14 09:30N 29°37' W 095°02'0 0.0
2018-Feb-14 09:00N 29°37' W 095°02'0 0.0
2018-Feb-14 08:30N 29°37' W 095°02'0 0.0
2018-Feb-14 08:00N 29°37' W 095°02'0 0.0
2018-Feb-14 07:30N 29°37' W 095°02'0 0.0
2018-Feb-14 07:00N 29°37' W 095°02'0 0.0
2018-Feb-14 06:30N 29°37' W 095°02'0 0.0
2018-Feb-14 06:00N 29°37' W 095°02'0 0.0
2018-Feb-14 05:30N 29°37' W 095°02'0 0.0
2018-Feb-14 05:00N 29°37' W 095°02'0 0.0
2018-Feb-14 04:30N 29°37' W 095°02'0 0.0
2018-Feb-14 04:00N 29°37' W 095°02'0 0.0
2018-Feb-14 03:30N 29°37' W 095°02'0 0.0
2018-Feb-14 03:00N 29°37' W 095°02'0 0.0
2018-Feb-14 02:30N 29°37' W 095°02'0 0.0
2018-Feb-14 02:00N 29°37' W 095°02'0 0.0
2018-Feb-14 01:30N 29°37' W 095°02'0 0.0
2018-Feb-14 01:00N 29°37' W 095°02'0 0.0
2018-Feb-14 00:30N 29°37' W 095°02'0 0.0
2018-Feb-14 00:00N 29°37' W 095°02'0 0.0
2018-Feb-13 23:30N 29°37' W 095°02'0 0.0
2018-Feb-13 23:00N 29°37' W 095°02'0 0.0
2018-Feb-13 22:30N 29°37' W 095°02'0 0.0
2018-Feb-13 22:00N 29°37' W 095°02'0 0.0
2018-Feb-13 21:30N 29°37' W 095°02'0 0.1
2018-Feb-13 21:00N 29°37' W 095°02'1 2.8
2018-Feb-13 20:30N 29°37' W 094°60'0 0.1
2018-Feb-13 20:00N 29°37' W 094°60'0 0.0
2018-Feb-13 19:30N 29°37' W 094°60'1 1.3
2018-Feb-13 19:00N 29°37' W 094°59'3 6.7
2018-Feb-13 18:30N 29°40' W 094°59'  

Dump ship's entire track history